Time;durP1;ratioP1;P1;durP2;ratioP2;P2;SDS_P1;SDS_P2;PMS_P1;PMS_P2;Temp;Humidity;BMP_temperature;BMP_pressure;BME280_temperature;BME280_humidity;BME280_pressure;Samples;Min_cycle;Max_cycle;Signal;HPM_P1;HPM_P2
2022/07/29 00:01:17;;;;;;;9.75;1.10;;;;;;;18.27;51.33;101530.84;5070472;28;20064;-74
2022/07/29 00:03:46;;;;;;;2.42;0.80;;;;;;;18.30;51.43;101530.69;5055707;28;20041;-74
2022/07/29 00:06:14;;;;;;;2.25;0.80;;;;;;;18.29;51.39;101526.28;5071041;28;20412;-74
2022/07/29 00:08:41;;;;;;;3.42;0.70;;;;;;;18.29;51.38;101528.97;5070729;28;20118;-74
2022/07/29 00:11:09;;;;;;;2.97;0.90;;;;;;;18.28;51.63;101518.38;5070814;28;20045;-74
2022/07/29 00:13:36;;;;;;;3.45;0.85;;;;;;;18.29;51.54;101523.63;5071536;28;20479;-74
2022/07/29 00:16:06;;;;;;;3.22;0.90;;;;;;;18.24;51.75;101525.69;5071181;28;20766;-74
2022/07/29 00:18:33;;;;;;;6.53;1.10;;;;;;;18.24;51.81;101520.34;5088599;28;20519;-74
2022/07/29 00:21:00;;;;;;;2.38;1.00;;;;;;;18.26;51.44;101518.44;5070478;28;20131;-74
2022/07/29 00:23:28;;;;;;;4.57;0.90;;;;;;;18.25;51.59;101515.88;5071302;28;20499;-74
2022/07/29 00:25:57;;;;;;;3.00;0.80;;;;;;;18.21;51.80;101519.66;5070968;28;20048;-74
2022/07/29 00:28:24;;;;;;;4.38;0.93;;;;;;;18.20;51.85;101517.91;5055705;28;20408;-74
2022/07/29 00:30:51;;;;;;;3.72;1.00;;;;;;;18.19;51.82;101513.53;5064390;28;20033;-74
2022/07/29 00:33:18;;;;;;;2.17;0.98;;;;;;;18.20;51.65;101510.75;5070967;28;20040;-74
2022/07/29 00:35:46;;;;;;;2.95;0.82;;;;;;;18.21;51.71;101508.97;5073637;28;20116;-74
2022/07/29 00:38:19;;;;;;;3.25;0.95;;;;;;;18.18;51.80;101501.97;5070410;28;20049;-74
2022/07/29 00:40:48;;;;;;;2.10;0.70;;;;;;;18.15;51.79;101495.00;5071279;28;20068;-75
2022/07/29 00:43:16;;;;;;;2.40;1.13;;;;;;;18.16;51.93;101507.41;5070963;28;20104;-75
2022/07/29 00:45:44;;;;;;;4.07;0.80;;;;;;;18.12;51.94;101505.81;5071389;28;20071;-75
2022/07/29 00:48:11;;;;;;;6.18;1.13;;;;;;;18.09;52.09;101507.78;5071495;28;20038;-75
2022/07/29 00:50:39;;;;;;;2.20;0.80;;;;;;;18.03;52.33;101510.78;5071304;28;20076;-73
2022/07/29 00:53:07;;;;;;;2.72;0.88;;;;;;;18.04;52.21;101502.69;5070180;28;20164;-73
2022/07/29 00:55:35;;;;;;;5.32;0.90;;;;;;;17.99;52.43;101510.94;5054250;28;20128;-72
2022/07/29 00:58:03;;;;;;;4.95;0.93;;;;;;;17.94;52.68;101510.28;5070579;28;20047;-73
2022/07/29 01:00:30;;;;;;;2.95;1.10;;;;;;;17.96;52.67;101516.41;5070917;28;20209;-72
2022/07/29 01:02:58;;;;;;;4.75;0.90;;;;;;;17.98;52.65;101519.88;5069867;28;20519;-72
2022/07/29 01:05:28;;;;;;;2.33;0.85;;;;;;;18.02;52.85;101525.06;5080715;28;20041;-73
2022/07/29 01:08:17;;;;;;;4.50;0.90;;;;;;;18.00;53.26;101528.66;5071842;28;20037;-72
2022/07/29 01:10:47;;;;;;;3.50;1.10;;;;;;;18.01;53.77;101534.84;5070993;28;20652;-72
2022/07/29 01:13:15;;;;;;;3.95;1.10;;;;;;;18.04;54.43;101555.19;5070441;28;20049;-73
2022/07/29 01:16:07;;;;;;;2.67;1.20;;;;;;;18.02;54.09;101551.72;5070763;28;20083;-72
2022/07/29 01:18:41;;;;;;;9.52;1.30;;;;;;;18.01;53.76;101553.53;5070017;28;20041;-72
2022/07/29 01:21:49;;;;;;;5.90;1.10;;;;;;;17.95;54.41;101551.13;5072758;28;20545;-73
2022/07/29 01:24:28;;;;;;;6.80;1.38;;;;;;;17.89;54.67;101557.66;5071133;28;20041;-73
2022/07/29 01:27:38;;;;;;;2.40;1.10;;;;;;;17.84;54.90;101549.03;5073545;28;20041;-72
2022/07/29 01:30:07;;;;;;;13.95;1.48;;;;;;;17.54;56.59;101549.59;5073931;28;20045;-73
2022/07/29 01:32:38;;;;;;;6.72;1.98;;;;;;;17.06;60.10;101546.53;5075756;28;20044;-73
2022/07/29 01:35:23;;;;;;;10.07;2.17;;;;;;;16.51;65.44;101542.72;5076592;28;20868;-72
2022/07/29 01:38:00;;;;;;;5.97;1.70;;;;;;;15.99;67.07;101544.03;5057489;28;20116;-72
2022/07/29 01:40:40;;;;;;;5.82;1.70;;;;;;;15.52;69.08;101541.50;5073041;28;20821;-73
2022/07/29 01:43:17;;;;;;;7.95;2.08;;;;;;;15.22;70.67;101550.59;5078521;28;20045;-72
2022/07/29 01:45:56;;;;;;;13.82;1.85;;;;;;;15.02;71.26;101569.09;5074162;28;20044;-73
2022/07/29 01:48:34;;;;;;;6.45;2.20;;;;;;;14.92;72.53;101584.50;5072218;28;20051;-74
2022/07/29 01:51:12;;;;;;;5.07;2.55;;;;;;;15.01;74.57;101596.56;5073809;28;20068;-74
2022/07/29 01:53:54;;;;;;;8.10;2.40;;;;;;;14.92;73.83;101584.50;5073713;28;20037;-75
2022/07/29 01:56:25;;;;;;;11.25;2.40;;;;;;;14.87;74.50;101583.78;5070957;28;20044;-75
2022/07/29 01:58:55;;;;;;;3.97;2.78;;;;;;;14.86;74.54;101593.56;5054014;28;20416;-74
2022/07/29 02:01:27;;;;;;;5.78;2.42;;;;;;;14.91;74.78;101598.69;5066713;28;20049;-73
2022/07/29 02:03:57;;;;;;;5.13;2.45;;;;;;;14.96;76.52;101587.91;5084565;28;20122;-73
2022/07/29 02:06:27;;;;;;;3.80;2.47;;;;;;;14.92;76.82;101576.53;5074235;28;20415;-73
2022/07/29 02:08:58;;;;;;;5.80;2.67;;;;;;;14.90;77.04;101570.41;5073282;28;20048;-73
2022/07/29 02:11:25;;;;;;;6.28;2.70;;;;;;;14.85;77.69;101567.94;5074153;28;20478;-73
2022/07/29 02:13:57;;;;;;;5.55;2.63;;;;;;;14.79;76.99;101562.88;5069854;28;20088;-73
2022/07/29 02:16:30;;;;;;;5.82;2.90;;;;;;;14.81;77.57;101568.94;5053319;28;20157;-73
2022/07/29 02:19:00;;;;;;;6.22;2.67;;;;;;;14.83;78.81;101551.19;5053008;28;20120;-73
2022/07/29 02:21:31;;;;;;;5.50;3.00;;;;;;;14.84;79.83;101552.06;5061652;28;20059;-73
2022/07/29 02:24:01;;;;;;;5.88;2.90;;;;;;;14.77;79.62;101545.22;5072240;28;20045;-72
2022/07/29 02:26:33;;;;;;;5.55;2.60;;;;;;;14.77;80.27;101535.50;5071394;28;20426;-72
2022/07/29 02:29:02;;;;;;;5.10;2.45;;;;;;;14.75;80.87;101516.97;5072205;28;20041;-72
2022/07/29 02:31:35;;;;;;;4.72;2.50;;;;;;;14.75;81.25;101502.84;5070877;28;20037;-72
2022/07/29 02:34:08;;;;;;;5.82;2.40;;;;;;;14.60;81.03;101486.53;5072932;28;20531;-72
2022/07/29 02:36:36;;;;;;;5.32;2.30;;;;;;;14.42;80.71;101487.19;5075886;28;20124;-72
2022/07/29 02:39:06;;;;;;;5.57;2.45;;;;;;;14.25;81.06;101486.03;5073281;28;20118;-72
2022/07/29 02:42:01;;;;;;;5.45;2.50;;;;;;;14.14;81.42;101482.88;5076813;28;20040;-72
2022/07/29 02:44:28;;;;;;;3.92;3.00;;;;;;;14.09;82.43;101474.25;5070914;28;20209;-72
2022/07/29 02:47:26;;;;;;;5.53;2.92;;;;;;;14.09;82.63;101455.69;5073021;28;20508;-72
2022/07/29 02:50:12;;;;;;;4.15;2.67;;;;;;;14.01;82.84;101445.34;5074585;28;20037;-72
2022/07/29 02:53:05;;;;;;;5.63;2.50;;;;;;;13.92;83.38;101443.00;5074819;28;20041;-72
2022/07/29 02:55:40;;;;;;;4.68;2.80;;;;;;;13.79;83.63;101440.78;5053487;28;20425;-73
2022/07/29 02:58:28;;;;;;;4.80;2.90;;;;;;;13.73;84.02;101440.13;5072140;28;20160;-73
2022/07/29 03:00:59;;;;;;;5.80;3.05;;;;;;;13.66;84.42;101453.59;5072314;28;20041;-73
2022/07/29 03:03:35;;;;;;;6.75;3.00;;;;;;;13.66;84.95;101458.88;5072339;28;20045;-73
2022/07/29 03:06:04;;;;;;;8.30;3.03;;;;;;;13.70;84.64;101450.81;5077113;28;20037;-73
2022/07/29 03:08:34;;;;;;;6.47;3.60;;;;;;;13.73;85.13;101450.72;5072448;28;20044;-73
2022/07/29 03:11:03;;;;;;;7.38;3.20;;;;;;;13.72;84.99;101446.34;5071320;28;20047;-72
2022/07/29 03:13:30;;;;;;;5.68;2.80;;;;;;;13.72;85.06;101449.88;5072606;28;20059;-73
2022/07/29 03:16:00;;;;;;;4.38;3.20;;;;;;;13.74;84.98;101445.34;5072021;28;20041;-73
2022/07/29 03:18:27;;;;;;;6.60;2.95;;;;;;;13.79;84.97;101445.19;5072087;28;20048;-73
2022/07/29 03:20:55;;;;;;;4.85;3.17;;;;;;;13.81;84.57;101446.03;5072053;28;20127;-72
2022/07/29 03:23:23;;;;;;;4.95;3.13;;;;;;;13.81;84.60;101438.06;5066045;28;20788;-73
2022/07/29 03:25:51;;;;;;;4.93;3.13;;;;;;;13.85;83.33;101433.53;5071867;28;20029;-72
2022/07/29 03:28:19;;;;;;;6.53;3.20;;;;;;;13.85;83.57;101436.19;5071002;28;20534;-72
2022/07/29 03:30:49;;;;;;;6.68;3.08;;;;;;;13.88;83.02;101442.25;5086487;28;20041;-73
2022/07/29 03:33:16;;;;;;;3.63;3.20;;;;;;;13.90;82.94;101435.09;5071951;28;20061;-72
2022/07/29 03:35:44;;;;;;;6.80;3.53;;;;;;;13.89;83.31;101446.63;5075891;28;20037;-73
2022/07/29 03:38:11;;;;;;;5.15;3.28;;;;;;;13.90;83.38;101451.00;5070098;28;20037;-73
2022/07/29 03:40:49;;;;;;;6.63;3.38;;;;;;;13.91;82.93;101446.59;5070360;28;20044;-72
2022/07/29 03:43:19;;;;;;;7.68;3.38;;;;;;;13.94;83.35;101455.28;5070029;28;20468;-71
2022/07/29 03:45:54;;;;;;;4.55;3.60;;;;;;;13.95;83.46;101450.84;5071169;28;20054;-72
2022/07/29 03:48:26;;;;;;;8.45;3.30;;;;;;;13.95;83.27;101441.13;5051960;28;20128;-72
2022/07/29 03:50:53;;;;;;;6.60;3.75;;;;;;;13.95;83.59;101450.84;5071387;28;20033;-72
2022/07/29 03:53:20;;;;;;;4.53;3.33;;;;;;;13.99;83.64;101455.13;5071546;28;20408;-72
2022/07/29 03:55:54;;;;;;;5.35;3.50;;;;;;;14.02;83.33;101462.09;5071237;28;20483;-72
2022/07/29 03:58:26;;;;;;;5.10;3.85;;;;;;;13.99;83.89;101460.44;5075991;28;20041;-72
2022/07/29 04:00:55;;;;;;;5.30;3.22;;;;;;;14.02;83.65;101464.75;5070792;28;20073;-72
2022/07/29 04:03:22;;;;;;;7.40;3.85;;;;;;;14.02;83.50;101460.34;5071548;28;20045;-72
2022/07/29 04:06:05;;;;;;;6.35;3.22;;;;;;;14.07;83.11;101449.56;5070884;28;20049;-72
2022/07/29 04:08:34;;;;;;;5.72;3.33;;;;;;;14.11;82.59;101467.06;5070400;28;20569;-72
2022/07/29 04:11:02;;;;;;;4.93;3.40;;;;;;;14.08;83.24;101462.75;5071174;28;20041;-72
2022/07/29 04:13:31;;;;;;;5.95;3.90;;;;;;;14.07;83.67;101462.81;5076939;28;20033;-74
2022/07/29 04:15:58;;;;;;;8.15;4.00;;;;;;;14.10;84.08;101470.66;5092229;28;20048;-73
2022/07/29 04:18:26;;;;;;;7.32;4.57;;;;;;;14.15;84.32;101484.63;5091845;28;20048;-73
2022/07/29 04:20:53;;;;;;;5.10;3.83;;;;;;;14.20;85.03;101490.63;5071578;28;20056;-73
2022/07/29 04:23:20;;;;;;;5.45;3.55;;;;;;;14.20;84.70;101492.41;5071238;28;20052;-72
2022/07/29 04:25:48;;;;;;;7.68;4.00;;;;;;;14.18;84.85;101479.22;5078614;28;20059;-72
2022/07/29 04:28:15;;;;;;;10.73;4.47;;;;;;;14.21;85.30;101480.88;5071456;28;20041;-72
2022/07/29 04:30:44;;;;;;;5.35;3.78;;;;;;;14.23;85.47;101481.72;5070565;28;20107;-72
2022/07/29 04:33:12;;;;;;;5.60;3.70;;;;;;;14.23;85.34;101479.06;5073267;28;20044;-72
2022/07/29 04:35:39;;;;;;;5.78;3.90;;;;;;;14.21;85.14;101484.38;5077353;28;20171;-72
2022/07/29 04:38:16;;;;;;;5.03;3.83;;;;;;;14.23;85.51;101497.63;5085109;28;20120;-72
2022/07/29 04:40:44;;;;;;;5.03;3.42;;;;;;;14.23;85.37;101495.81;5068524;28;20107;-72
2022/07/29 04:43:11;;;;;;;5.43;3.90;;;;;;;14.26;85.47;101505.44;5069769;28;20048;-72
2022/07/29 04:45:41;;;;;;;11.00;4.65;;;;;;;14.28;85.55;101507.16;5070044;28;20037;-73
2022/07/29 04:48:09;;;;;;;7.68;4.32;;;;;;;14.32;85.74;101512.31;5071926;28;20043;-72
2022/07/29 04:50:40;;;;;;;8.98;3.78;;;;;;;14.33;85.38;101519.34;5070635;28;20069;-72
2022/07/29 04:53:07;;;;;;;8.65;3.67;;;;;;;14.34;85.42;101515.78;5070026;28;20063;-73
2022/07/29 04:55:36;;;;;;;7.47;4.18;;;;;;;14.32;85.18;101497.28;5072769;28;20041;-73
2022/07/29 04:58:05;;;;;;;7.03;3.60;;;;;;;14.33;85.03;101511.41;5073905;28;20063;-72
2022/07/29 05:00:32;;;;;;;5.93;3.58;;;;;;;14.32;84.47;101502.59;5073707;28;20247;-72
2022/07/29 05:02:59;;;;;;;6.20;3.78;;;;;;;14.27;84.04;101502.75;5074375;28;20500;-73
2022/07/29 05:05:27;;;;;;;8.48;3.80;;;;;;;14.26;84.04;101503.69;5074294;28;20065;-73
2022/07/29 05:07:55;;;;;;;6.22;3.63;;;;;;;14.25;84.03;101495.75;5072703;28;20045;-72
2022/07/29 05:10:22;;;;;;;5.10;3.92;;;;;;;14.25;84.31;101493.09;5074048;28;20074;-73
2022/07/29 05:12:49;;;;;;;4.95;3.60;;;;;;;14.23;84.20;101487.88;5073397;28;20037;-72
2022/07/29 05:15:17;;;;;;;5.25;3.83;;;;;;;14.22;84.14;101490.59;5073200;28;20033;-73
2022/07/29 05:17:44;;;;;;;5.53;3.65;;;;;;;14.20;84.53;101485.31;5077908;28;20041;-72
2022/07/29 05:20:11;;;;;;;5.50;3.25;;;;;;;14.24;84.08;101486.09;5076233;28;20120;-72
2022/07/29 05:22:38;;;;;;;5.70;3.45;;;;;;;14.24;84.10;101494.06;5073735;28;20084;-72
2022/07/29 05:25:06;;;;;;;7.95;4.00;;;;;;;14.23;84.37;101497.63;5073568;28;20041;-72
2022/07/29 05:27:36;;;;;;;5.20;3.65;;;;;;;14.26;84.00;101501.03;5074199;28;20045;-71
2022/07/29 05:30:04;;;;;;;5.85;3.67;;;;;;;14.27;83.98;101500.09;5074736;28;20935;-72
2022/07/29 05:32:31;;;;;;;4.65;3.30;;;;;;;14.28;84.25;101506.25;5070398;28;20126;-73
2022/07/29 05:34:58;;;;;;;5.70;3.83;;;;;;;14.33;84.20;101499.03;5073554;28;20077;-73
2022/07/29 05:37:25;;;;;;;7.72;4.00;;;;;;;14.34;84.08;101502.53;5073970;28;20037;-72
2022/07/29 05:39:52;;;;;;;5.43;3.85;;;;;;;14.36;83.95;101509.50;5076995;28;20045;-73
2022/07/29 05:42:25;;;;;;;6.35;4.30;;;;;;;14.37;84.49;101505.09;5081311;28;20040;-72
2022/07/29 05:44:53;;;;;;;8.38;4.28;;;;;;;14.43;84.30;101502.19;5073441;28;20045;-73
2022/07/29 05:47:21;;;;;;;7.07;4.05;;;;;;;14.45;84.46;101506.50;5074474;28;20041;-72
2022/07/29 05:49:50;;;;;;;5.43;3.60;;;;;;;14.53;84.41;101503.59;5075465;28;20044;-72
2022/07/29 05:52:18;;;;;;;5.40;3.83;;;;;;;14.63;84.67;101506.78;5075119;28;20522;-73
2022/07/29 05:54:47;;;;;;;8.13;4.43;;;;;;;14.72;84.13;101509.13;5073812;28;20041;-73
2022/07/29 05:57:20;;;;;;;5.05;3.85;;;;;;;14.82;83.77;101499.03;5072740;28;20492;-72
2022/07/29 05:59:49;;;;;;;6.38;3.83;;;;;;;14.92;83.00;101507.53;5073262;28;20048;-73
2022/07/29 06:02:17;;;;;;;9.35;4.32;;;;;;;14.95;82.95;101512.72;5073847;28;20037;-73
2022/07/29 06:04:44;;;;;;;8.70;4.57;;;;;;;14.99;83.37;101513.47;5073143;28;20047;-72
2022/07/29 06:07:11;;;;;;;7.18;4.00;;;;;;;15.01;83.69;101499.19;5073132;28;20045;-73
2022/07/29 06:09:38;;;;;;;5.07;3.67;;;;;;;15.09;82.48;101498.91;5079245;28;20495;-72
2022/07/29 06:12:06;;;;;;;5.88;3.58;;;;;;;15.09;82.37;101513.97;5073550;28;20044;-72
2022/07/29 06:14:33;;;;;;;12.23;4.50;;;;;;;15.10;82.54;101505.97;5073284;28;20088;-72
2022/07/29 06:17:00;;;;;;;10.13;4.57;;;;;;;15.17;82.79;101506.56;5072498;28;20043;-72
2022/07/29 06:19:27;;;;;;;7.82;4.00;;;;;;;15.22;83.00;101500.13;5073137;28;20044;-72
2022/07/29 06:21:56;;;;;;;4.75;4.05;;;;;;;15.28;82.07;101500.84;5071231;28;20064;-72
2022/07/29 06:24:23;;;;;;;8.05;4.22;;;;;;;15.25;82.07;101498.28;5074842;28;20546;-72
2022/07/29 06:26:50;;;;;;;6.65;4.05;;;;;;;15.24;82.33;101508.06;5069907;28;20041;-72
2022/07/29 06:29:17;;;;;;;8.18;3.72;;;;;;;15.21;82.67;101506.38;5071942;28;20504;-72
2022/07/29 06:31:44;;;;;;;8.40;4.13;;;;;;;15.21;82.63;101509.03;5071396;28;20756;-72
2022/07/29 06:34:11;;;;;;;7.57;4.50;;;;;;;15.24;82.37;101517.81;5073644;28;20048;-72
2022/07/29 06:36:39;;;;;;;7.88;4.50;;;;;;;15.24;82.19;101525.78;5071840;28;20041;-72
2022/07/29 06:39:08;;;;;;;6.13;4.45;;;;;;;15.22;81.93;101525.84;5072835;28;20147;-72
2022/07/29 06:41:37;;;;;;;8.07;4.15;;;;;;;15.23;81.74;101524.94;5073206;28;20056;-72
2022/07/29 06:44:09;;;;;;;10.20;3.83;;;;;;;15.19;81.67;101523.31;5071382;28;20045;-72
2022/07/29 06:46:37;;;;;;;9.85;4.35;;;;;;;15.18;81.68;101533.06;5073174;28;20051;-71
2022/07/29 06:49:04;;;;;;;6.43;3.58;;;;;;;15.22;82.09;101525.84;5072630;28;20088;-72
2022/07/29 06:51:32;;;;;;;6.80;3.80;;;;;;;15.28;81.91;101524.75;5072308;28;20071;-70
2022/07/29 06:54:00;;;;;;;10.77;4.63;;;;;;;15.32;81.13;101521.91;5076733;28;20047;-72
2022/07/29 06:56:37;;;;;;;10.73;4.47;;;;;;;15.31;80.60;101524.63;5081060;28;20048;-71
2022/07/29 06:59:10;;;;;;;5.38;4.15;;;;;;;15.24;80.23;101513.38;5074461;28;20047;-71
2022/07/29 07:01:43;;;;;;;7.68;4.75;;;;;;;15.12;81.09;101522.66;5057585;28;20045;-71
2022/07/29 07:04:11;;;;;;;7.15;4.25;;;;;;;15.07;81.00;101516.69;5083931;28;20060;-71
2022/07/29 07:06:39;;;;;;;6.45;4.10;;;;;;;14.97;81.44;101515.31;5071377;28;20052;-71
2022/07/29 07:09:06;;;;;;;6.80;4.22;;;;;;;14.86;81.86;101518.34;5072445;28;20076;-71
2022/07/29 07:11:33;;;;;;;8.80;4.72;;;;;;;14.81;82.88;101530.94;5063273;28;20042;-72
2022/07/29 07:14:00;;;;;;;6.55;5.47;;;;;;;14.87;83.50;101549.28;5073163;28;20047;-72
2022/07/29 07:16:31;;;;;;;5.75;4.40;;;;;;;14.96;83.09;101543.63;5072689;28;20049;-71
2022/07/29 07:18:59;;;;;;;10.57;5.60;;;;;;;14.99;82.96;101547.97;5063660;28;20496;-72
2022/07/29 07:21:27;;;;;;;8.18;5.30;;;;;;;15.01;82.99;101557.63;5068276;28;20053;-71
2022/07/29 07:23:57;;;;;;;6.72;5.38;;;;;;;15.03;82.01;101545.16;5087966;28;20049;-72
2022/07/29 07:26:25;;;;;;;7.22;5.18;;;;;;;15.00;81.98;101544.41;5072446;28;20045;-72
2022/07/29 07:28:53;;;;;;;7.57;5.03;;;;;;;15.01;81.74;101540.78;5072808;28;20037;-71
2022/07/29 07:31:20;;;;;;;9.93;5.65;;;;;;;15.04;81.41;101530.97;5072546;28;20044;-70
2022/07/29 07:33:47;;;;;;;6.90;4.80;;;;;;;15.05;81.12;101524.72;5072461;28;20588;-71
2022/07/29 07:36:14;;;;;;;6.85;4.68;;;;;;;15.04;80.92;101538.91;5072869;28;20076;-70
2022/07/29 07:38:41;;;;;;;9.23;5.07;;;;;;;15.06;80.63;101537.03;5071533;28;20099;-70
2022/07/29 07:41:08;;;;;;;7.45;4.50;;;;;;;15.12;79.29;101551.88;5072279;28;20433;-70
2022/07/29 07:43:35;;;;;;;8.00;5.03;;;;;;;15.10;80.62;101547.56;5071542;28;20063;-70
2022/07/29 07:46:02;;;;;;;6.63;5.00;;;;;;;15.18;80.84;101554.31;5077295;28;20478;-71
2022/07/29 07:48:30;;;;;;;8.90;4.85;;;;;;;15.29;81.01;101556.56;5072278;28;20041;-70
2022/07/29 07:50:57;;;;;;;6.28;4.60;;;;;;;15.37;81.42;101554.47;5072328;28;20033;-71
2022/07/29 07:53:24;;;;;;;7.35;4.50;;;;;;;15.51;80.06;101561.03;5071975;28;20040;-70
2022/07/29 07:55:51;;;;;;;8.73;4.63;;;;;;;15.50;79.68;101561.94;5052481;28;20038;-70
2022/07/29 07:58:38;;;;;;;8.20;5.05;;;;;;;15.51;78.92;101561.03;5089144;28;20045;-70
2022/07/29 08:01:06;;;;;;;7.40;4.60;;;;;;;15.47;79.21;101549.66;5073091;28;20084;-70
2022/07/29 08:03:33;;;;;;;10.13;4.80;;;;;;;15.52;78.86;101546.81;5075415;28;20045;-71
2022/07/29 08:06:01;;;;;;;8.23;4.68;;;;;;;15.51;79.01;101538.00;5071427;28;20423;-70
2022/07/29 08:08:28;;;;;;;6.45;4.60;;;;;;;15.56;78.88;101540.47;5074099;28;20045;-71
2022/07/29 08:10:56;;;;;;;8.32;4.68;;;;;;;15.61;78.67;101533.16;5079216;28;20103;-71
2022/07/29 08:13:27;;;;;;;9.93;4.60;;;;;;;15.68;77.54;101537.28;5070806;28;20037;-70
2022/07/29 08:15:59;;;;;;;7.53;5.07;;;;;;;15.71;77.59;101546.06;5071331;28;20077;-71
2022/07/29 08:18:31;;;;;;;8.13;4.57;;;;;;;15.74;78.70;101543.28;5074885;28;20049;-71
2022/07/29 08:20:58;;;;;;;9.52;4.15;;;;;;;15.86;79.62;101552.59;5051218;28;20068;-71
2022/07/29 08:23:26;;;;;;;5.88;4.10;;;;;;;16.03;79.29;101552.75;5078194;28;20455;-71
2022/07/29 08:26:13;;;;;;;5.90;4.18;;;;;;;16.30;78.59;101544.53;5071208;28;20785;-70
2022/07/29 08:28:49;;;;;;;7.07;4.68;;;;;;;16.59;76.46;101542.38;5080520;28;20199;-71
2022/07/29 08:31:16;;;;;;;7.28;4.25;;;;;;;16.83;74.74;101543.06;5077453;28;20472;-70
2022/07/29 08:33:44;;;;;;;6.07;4.05;;;;;;;17.01;74.42;101556.50;5089659;28;20051;-71
2022/07/29 08:36:12;;;;;;;5.45;3.10;;;;;;;17.28;73.47;101559.69;5081084;28;20047;-70
2022/07/29 08:38:40;;;;;;;8.63;3.92;;;;;;;17.47;73.67;101570.34;5077936;28;20064;-70
2022/07/29 08:41:10;;;;;;;6.70;3.65;;;;;;;17.75;74.06;101566.34;5073413;28;20041;-70
2022/07/29 08:43:37;;;;;;;5.07;3.08;;;;;;;18.23;73.49;101576.44;5075892;28;20098;-70
2022/07/29 08:46:05;;;;;;;5.30;3.38;;;;;;;18.49;70.87;101580.44;5075827;28;20116;-71
2022/07/29 08:48:34;;;;;;;6.65;3.47;;;;;;;18.63;70.94;101574.38;5079203;28;20040;-71
2022/07/29 08:51:01;;;;;;;4.88;3.70;;;;;;;18.77;71.42;101582.53;5077490;28;20140;-70
2022/07/29 08:53:32;;;;;;;7.35;3.65;;;;;;;18.93;71.71;101587.06;5077504;28;20041;-70
2022/07/29 08:55:59;;;;;;;5.80;3.42;;;;;;;19.09;71.01;101585.31;5077000;28;20049;-70
2022/07/29 08:58:31;;;;;;;9.25;3.90;;;;;;;19.25;68.80;101581.78;5077022;28;20044;-70
2022/07/29 09:01:04;;;;;;;8.15;3.58;;;;;;;19.27;68.68;101581.72;5097319;28;20836;-70
2022/07/29 09:03:36;;;;;;;8.02;3.53;;;;;;;19.33;69.24;101584.03;5078371;28;20076;-71
2022/07/29 09:06:04;;;;;;;6.47;3.40;;;;;;;19.33;67.39;101582.22;5089352;28;20045;-71
2022/07/29 09:08:34;;;;;;;5.32;3.38;;;;;;;19.25;67.67;101573.75;5076236;28;20043;-70
2022/07/29 09:11:03;;;;;;;4.93;3.08;;;;;;;19.28;66.12;101564.75;5077766;28;20055;-71
2022/07/29 09:13:34;;;;;;;7.93;3.20;;;;;;;19.36;66.54;101570.50;5090387;28;20090;-70
2022/07/29 09:16:07;;;;;;;4.65;3.38;;;;;;;19.54;67.56;101572.16;5081349;28;20033;-70
2022/07/29 09:18:44;;;;;;;5.30;3.20;;;;;;;19.76;65.92;101575.38;5076152;28;20051;-70
2022/07/29 09:24:13;;;;;;;6.15;3.28;;;;;;;19.95;65.20;101567.19;5075451;28;20048;-71
2022/07/29 09:26:44;;;;;;;7.28;3.00;;;;;;;20.09;62.64;101563.72;5077409;28;20040;-71
2022/07/29 09:29:17;;;;;;;5.78;3.20;;;;;;;20.12;63.29;101564.38;5080136;28;20085;-72
2022/07/29 09:31:53;;;;;;;3.92;3.00;;;;;;;20.22;65.04;101570.06;5077320;28;20550;-71
2022/07/29 09:34:26;;;;;;;4.38;3.22;;;;;;;20.41;63.40;101563.59;5082218;28;20128;-72
2022/07/29 09:36:55;;;;;;;8.02;2.83;;;;;;;20.48;62.36;101575.66;5077806;28;20041;-71
2022/07/29 09:39:45;;;;;;;7.15;3.22;;;;;;;20.41;61.96;101577.84;5077378;28;20048;-71
2022/07/29 09:42:13;;;;;;;8.50;3.17;;;;;;;20.42;63.30;101581.41;5086638;28;20072;-71
2022/07/29 09:44:49;;;;;;;7.95;3.42;;;;;;;20.42;63.55;101584.06;5071752;28;20040;-71
2022/07/29 09:47:18;;;;;;;;;;;;;;;20.49;63.67;101577.38;5073688;28;20067;-73
2022/07/29 09:49:58;;;;;;;5.03;3.00;;;;;;;20.80;61.88;101575.53;5073256;28;19925;-72
2022/07/29 09:52:29;;;;;;;7.47;3.42;;;;;;;20.98;59.88;101568.16;5073308;28;20060;-72
2022/07/29 09:55:12;;;;;;;6.28;3.50;;;;;;;20.93;59.44;101567.59;5053090;28;20064;-72
2022/07/29 09:58:28;;;;;;;3.92;3.13;;;;;;;21.02;59.22;101568.84;5063806;28;20057;-70
2022/07/29 10:01:15;;;;;;;5.32;3.50;;;;;;;21.03;60.52;101573.25;5073491;28;20053;-71
2022/07/29 10:04:03;;;;;;;3.80;3.22;;;;;;;21.00;61.44;101568.06;5086589;28;20053;-71
2022/07/29 10:06:33;;;;;;;7.57;3.22;;;;;;;21.07;61.43;101575.63;5073342;28;20041;-71
2022/07/29 10:09:09;;;;;;;;;;;;;;;21.34;61.29;101579.31;5065366;28;20515;-72
2022/07/29 10:11:37;;;;;;;5.55;3.33;;;;;;;21.55;60.49;101567.22;5072494;28;19924;-71
2022/07/29 10:14:16;;;;;;;6.32;3.00;;;;;;;21.70;59.60;101568.06;5095489;28;20045;-71
2022/07/29 10:16:51;;;;;;;6.88;2.83;;;;;;;21.87;58.39;101574.97;5054362;28;20108;-71
2022/07/29 10:19:24;;;;;;;7.15;3.08;;;;;;;21.91;59.16;101564.91;5056048;28;20033;-71
2022/07/29 10:21:52;;;;;;;7.38;2.72;;;;;;;22.00;56.99;101569.66;5052206;28;20050;-71
2022/07/29 10:24:29;;;;;;;3.60;2.65;;;;;;;22.03;57.60;101568.56;5072268;28;20045;-70
2022/07/29 10:26:58;;;;;;;3.67;2.80;;;;;;;;;;5072566;28;20780;-72
2022/07/29 10:29:26;;;;;;;3.70;2.97;;;;;;;22.23;57.29;101569.03;5077910;28;20045;-71
2022/07/29 10:32:22;;;;;;;3.17;2.60;;;;;;;22.29;57.95;101555.19;5093699;28;20043;-71
2022/07/29 10:35:05;;;;;;;4.57;2.70;;;;;;;22.44;58.57;101562.22;5054655;28;20064;-71
2022/07/29 10:37:54;;;;;;;6.53;2.80;;;;;;;22.61;59.13;101555.69;5069849;28;20029;-71
2022/07/29 10:43:48;;;;;;;5.22;2.50;;;;;;;23.03;58.11;101557.25;5070086;28;20597;-70
2022/07/29 10:46:19;;;;;;;6.32;2.75;;;;;;;23.19;56.71;101548.97;5071856;28;20470;-69
2022/07/29 10:49:16;;;;;;;7.07;2.50;;;;;;;23.26;55.03;101555.63;5064384;28;20037;-70
2022/07/29 10:51:49;;;;;;;4.82;2.30;;;;;;;23.31;52.60;101561.50;5071969;28;20495;-70
2022/07/29 10:54:41;;;;;;;5.43;2.30;;;;;;;23.27;54.76;101558.19;5071878;28;20049;-71
2022/07/29 10:57:29;;;;;;;5.03;2.50;;;;;;;23.36;51.67;101551.28;5071960;28;20525;-72
2022/07/29 11:00:28;;;;;;;6.13;2.47;;;;;;;23.26;53.69;101548.38;5072003;28;20069;-71
2022/07/29 11:02:57;;;;;;;3.25;2.20;;;;;;;23.38;53.15;101553.84;5073176;28;20523;-71
2022/07/29 11:05:29;;;;;;;5.72;2.85;;;;;;;23.50;52.41;101546.72;5074905;28;20590;-71
2022/07/29 11:08:23;;;;;;;6.68;2.30;;;;;;;23.57;52.76;101554.19;5072482;28;20033;-71
2022/07/29 11:11:19;;;;;;;8.00;2.25;;;;;;;23.69;51.98;101554.25;5070493;28;20485;-70
2022/07/29 11:13:51;;;;;;;6.95;2.55;;;;;;;23.89;52.76;101555.47;5071941;28;20179;-72
2022/07/29 11:16:22;;;;;;;5.47;2.58;;;;;;;24.07;49.79;101549.66;5077511;28;20084;-72
2022/07/29 11:19:10;;;;;;;3.00;2.20;;;;;;;24.01;50.98;101553.69;5071105;28;20037;-71
2022/07/29 11:21:40;;;;;;;6.28;2.15;;;;;;;24.13;50.70;101547.38;5072997;28;20104;-72
2022/07/29 11:24:34;;;;;;;3.45;1.90;;;;;;;24.27;50.55;101556.19;5076270;28;20136;-71
2022/07/29 11:27:20;;;;;;;7.20;2.38;;;;;;;24.41;50.22;101553.31;5072547;28;20124;-71
2022/07/29 11:30:00;;;;;;;3.60;1.80;;;;;;;24.65;49.43;101544.28;5062451;28;20128;-71
2022/07/29 11:32:39;;;;;;;4.00;1.70;;;;;;;24.85;47.39;101542.69;5071726;28;20059;-71
2022/07/29 11:35:21;;;;;;;4.85;1.70;;;;;;;24.89;46.81;101543.31;5077137;28;20129;-70
2022/07/29 11:38:26;;;;;;;2.10;1.30;;;;;;;24.99;46.14;101544.28;5071888;28;20043;-71
2022/07/29 11:41:24;;;;;;;3.47;1.48;;;;;;;25.15;45.64;101543.06;5071985;28;20055;-71
2022/07/29 11:43:59;;;;;;;9.88;1.80;;;;;;;25.19;46.07;101539.97;5071361;28;20088;-71
2022/07/29 11:46:50;;;;;;;4.78;1.65;;;;;;;25.22;45.77;101542.44;5075079;28;20525;-71
2022/07/29 11:49:26;;;;;;;3.88;1.50;;;;;;;25.23;45.37;101535.19;5071204;28;20599;-72
2022/07/29 11:52:14;;;;;;;3.38;1.42;;;;;;;25.24;46.01;101531.50;5071478;28;20049;-71
2022/07/29 11:54:43;;;;;;;2.95;1.35;;;;;;;25.40;43.96;101525.72;5074410;28;20064;-70
2022/07/29 11:57:28;;;;;;;3.22;1.30;;;;;;;25.50;42.55;101531.22;5092128;28;20036;-72